sensor_id;sensor_type;location;lat;lon;timestamp;P1;durP1;ratioP1;P2;durP2;ratioP2
74363;SDS011;62797;49.740;10.154;2023-04-03T00:01:31;12.52;;;6.35;;
74363;SDS011;62797;49.740;10.154;2023-04-03T00:03:57;7.00;;;5.13;;
74363;SDS011;62797;49.740;10.154;2023-04-03T00:06:23;14.10;;;4.38;;
74363;SDS011;62797;49.740;10.154;2023-04-03T00:08:49;6.80;;;4.28;;
74363;SDS011;62797;49.740;10.154;2023-04-03T00:11:16;8.68;;;4.63;;
74363;SDS011;62797;49.740;10.154;2023-04-03T00:13:42;7.18;;;4.18;;
74363;SDS011;62797;49.740;10.154;2023-04-03T00:16:08;7.47;;;5.20;;
74363;SDS011;62797;49.740;10.154;2023-04-03T00:18:35;11.13;;;5.00;;
74363;SDS011;62797;49.740;10.154;2023-04-03T00:21:02;8.10;;;4.00;;
74363;SDS011;62797;49.740;10.154;2023-04-03T00:23:28;4.95;;;4.07;;
74363;SDS011;62797;49.740;10.154;2023-04-03T00:25:54;7.05;;;4.88;;
74363;SDS011;62797;49.740;10.154;2023-04-03T00:28:20;9.02;;;4.28;;
74363;SDS011;62797;49.740;10.154;2023-04-03T00:30:48;5.40;;;4.55;;
74363;SDS011;62797;49.740;10.154;2023-04-03T00:33:15;8.63;;;4.55;;
74363;SDS011;62797;49.740;10.154;2023-04-03T00:35:40;9.27;;;4.38;;
74363;SDS011;62797;49.740;10.154;2023-04-03T00:40:34;7.97;;;4.45;;
74363;SDS011;62797;49.740;10.154;2023-04-03T00:43:01;7.45;;;5.30;;
74363;SDS011;62797;49.740;10.154;2023-04-03T00:45:38;9.40;;;6.00;;
74363;SDS011;62797;49.740;10.154;2023-04-03T00:48:08;8.57;;;4.43;;
74363;SDS011;62797;49.740;10.154;2023-04-03T00:50:39;9.15;;;5.43;;
74363;SDS011;62797;49.740;10.154;2023-04-03T00:53:06;11.02;;;4.80;;
74363;SDS011;62797;49.740;10.154;2023-04-03T00:55:38;8.38;;;4.65;;
74363;SDS011;62797;49.740;10.154;2023-04-03T00:58:04;11.98;;;6.07;;
74363;SDS011;62797;49.740;10.154;2023-04-03T01:00:32;11.23;;;6.32;;
74363;SDS011;62797;49.740;10.154;2023-04-03T01:02:58;7.18;;;4.20;;
74363;SDS011;62797;49.740;10.154;2023-04-03T01:05:25;11.13;;;5.57;;
74363;SDS011;62797;49.740;10.154;2023-04-03T01:07:51;7.35;;;5.18;;
74363;SDS011;62797;49.740;10.154;2023-04-03T01:10:18;8.55;;;5.63;;
74363;SDS011;62797;49.740;10.154;2023-04-03T01:12:47;7.63;;;5.18;;
74363;SDS011;62797;49.740;10.154;2023-04-03T01:15:16;9.50;;;5.22;;
74363;SDS011;62797;49.740;10.154;2023-04-03T01:17:55;10.95;;;6.13;;
74363;SDS011;62797;49.740;10.154;2023-04-03T01:25:39;8.07;;;4.93;;
74363;SDS011;62797;49.740;10.154;2023-04-03T01:28:10;8.23;;;4.97;;
74363;SDS011;62797;49.740;10.154;2023-04-03T01:30:49;7.65;;;4.97;;
74363;SDS011;62797;49.740;10.154;2023-04-03T01:33:31;10.38;;;5.18;;
74363;SDS011;62797;49.740;10.154;2023-04-03T01:35:57;8.65;;;5.40;;
74363;SDS011;62797;49.740;10.154;2023-04-03T01:38:23;16.85;;;6.55;;
74363;SDS011;62797;49.740;10.154;2023-04-03T01:40:48;12.48;;;6.55;;
74363;SDS011;62797;49.740;10.154;2023-04-03T01:43:14;9.50;;;6.82;;
74363;SDS011;62797;49.740;10.154;2023-04-03T01:45:40;9.65;;;4.82;;
74363;SDS011;62797;49.740;10.154;2023-04-03T01:48:05;10.25;;;5.00;;
74363;SDS011;62797;49.740;10.154;2023-04-03T01:50:32;9.80;;;5.70;;
74363;SDS011;62797;49.740;10.154;2023-04-03T01:52:57;8.18;;;4.88;;
74363;SDS011;62797;49.740;10.154;2023-04-03T01:55:23;12.77;;;6.20;;
74363;SDS011;62797;49.740;10.154;2023-04-03T01:57:48;15.18;;;5.68;;
74363;SDS011;62797;49.740;10.154;2023-04-03T02:00:14;12.00;;;5.72;;
74363;SDS011;62797;49.740;10.154;2023-04-03T02:02:41;5.60;;;4.40;;
74363;SDS011;62797;49.740;10.154;2023-04-03T02:05:07;11.02;;;6.40;;
74363;SDS011;62797;49.740;10.154;2023-04-03T02:07:33;11.18;;;5.57;;
74363;SDS011;62797;49.740;10.154;2023-04-03T02:09:59;7.43;;;4.95;;
74363;SDS011;62797;49.740;10.154;2023-04-03T02:12:25;11.50;;;5.00;;
74363;SDS011;62797;49.740;10.154;2023-04-03T02:14:51;10.55;;;5.50;;
74363;SDS011;62797;49.740;10.154;2023-04-03T02:17:16;9.00;;;5.32;;
74363;SDS011;62797;49.740;10.154;2023-04-03T02:19:42;9.85;;;5.15;;
74363;SDS011;62797;49.740;10.154;2023-04-03T02:24:34;11.63;;;5.97;;
74363;SDS011;62797;49.740;10.154;2023-04-03T02:27:00;8.77;;;5.55;;
74363;SDS011;62797;49.740;10.154;2023-04-03T02:29:26;8.60;;;6.45;;
74363;SDS011;62797;49.740;10.154;2023-04-03T02:34:19;8.23;;;5.20;;
74363;SDS011;62797;49.740;10.154;2023-04-03T02:36:46;9.88;;;5.40;;
74363;SDS011;62797;49.740;10.154;2023-04-03T02:39:12;17.17;;;9.73;;
74363;SDS011;62797;49.740;10.154;2023-04-03T02:41:38;24.55;;;10.57;;
74363;SDS011;62797;49.740;10.154;2023-04-03T02:44:10;14.13;;;7.40;;
74363;SDS011;62797;49.740;10.154;2023-04-03T02:46:37;13.82;;;5.60;;
74363;SDS011;62797;49.740;10.154;2023-04-03T02:49:03;7.90;;;4.70;;
74363;SDS011;62797;49.740;10.154;2023-04-03T02:51:29;14.23;;;5.32;;
74363;SDS011;62797;49.740;10.154;2023-04-03T02:56:25;8.15;;;5.07;;
74363;SDS011;62797;49.740;10.154;2023-04-03T02:58:53;12.45;;;5.80;;
74363;SDS011;62797;49.740;10.154;2023-04-03T03:01:19;13.20;;;5.50;;
74363;SDS011;62797;49.740;10.154;2023-04-03T03:03:45;27.40;;;4.82;;
74363;SDS011;62797;49.740;10.154;2023-04-03T03:06:12;7.37;;;4.93;;
74363;SDS011;62797;49.740;10.154;2023-04-03T03:08:40;8.80;;;4.15;;
74363;SDS011;62797;49.740;10.154;2023-04-03T03:11:06;6.30;;;4.90;;
74363;SDS011;62797;49.740;10.154;2023-04-03T03:13:32;11.63;;;6.18;;
74363;SDS011;62797;49.740;10.154;2023-04-03T03:15:58;8.88;;;4.72;;
74363;SDS011;62797;49.740;10.154;2023-04-03T03:18:24;13.98;;;5.93;;
74363;SDS011;62797;49.740;10.154;2023-04-03T03:20:54;10.23;;;4.90;;
74363;SDS011;62797;49.740;10.154;2023-04-03T03:23:22;5.25;;;4.53;;
74363;SDS011;62797;49.740;10.154;2023-04-03T03:25:48;8.73;;;5.40;;
74363;SDS011;62797;49.740;10.154;2023-04-03T03:28:17;6.80;;;4.40;;
74363;SDS011;62797;49.740;10.154;2023-04-03T03:30:42;7.93;;;5.03;;
74363;SDS011;62797;49.740;10.154;2023-04-03T03:33:08;6.33;;;4.77;;
74363;SDS011;62797;49.740;10.154;2023-04-03T03:35:33;10.50;;;5.23;;
74363;SDS011;62797;49.740;10.154;2023-04-03T03:37:59;6.45;;;4.35;;
74363;SDS011;62797;49.740;10.154;2023-04-03T03:40:25;6.85;;;4.35;;
74363;SDS011;62797;49.740;10.154;2023-04-03T03:42:53;6.65;;;4.22;;
74363;SDS011;62797;49.740;10.154;2023-04-03T03:45:19;9.73;;;4.53;;
74363;SDS011;62797;49.740;10.154;2023-04-03T03:47:45;8.20;;;4.60;;
74363;SDS011;62797;49.740;10.154;2023-04-03T03:50:11;10.02;;;4.65;;
74363;SDS011;62797;49.740;10.154;2023-04-03T03:52:37;7.85;;;4.18;;
74363;SDS011;62797;49.740;10.154;2023-04-03T03:55:03;11.77;;;4.13;;
74363;SDS011;62797;49.740;10.154;2023-04-03T03:59:56;7.65;;;3.85;;
74363;SDS011;62797;49.740;10.154;2023-04-03T04:02:22;6.25;;;4.18;;
74363;SDS011;62797;49.740;10.154;2023-04-03T04:04:48;11.05;;;4.20;;
74363;SDS011;62797;49.740;10.154;2023-04-03T04:09:40;8.00;;;5.72;;
74363;SDS011;62797;49.740;10.154;2023-04-03T04:12:07;12.75;;;5.60;;
74363;SDS011;62797;49.740;10.154;2023-04-03T04:14:34;9.60;;;5.60;;
74363;SDS011;62797;49.740;10.154;2023-04-03T04:17:00;10.02;;;5.38;;
74363;SDS011;62797;49.740;10.154;2023-04-03T04:19:27;10.85;;;5.43;;
74363;SDS011;62797;49.740;10.154;2023-04-03T04:21:56;15.30;;;5.75;;
74363;SDS011;62797;49.740;10.154;2023-04-03T04:24:22;5.90;;;4.57;;
74363;SDS011;62797;49.740;10.154;2023-04-03T04:26:50;8.30;;;4.93;;
74363;SDS011;62797;49.740;10.154;2023-04-03T04:29:16;7.20;;;4.50;;
74363;SDS011;62797;49.740;10.154;2023-04-03T04:31:45;7.20;;;5.07;;
74363;SDS011;62797;49.740;10.154;2023-04-03T04:34:11;12.98;;;6.95;;
74363;SDS011;62797;49.740;10.154;2023-04-03T04:36:38;11.20;;;5.32;;
74363;SDS011;62797;49.740;10.154;2023-04-03T04:39:04;6.22;;;4.57;;
74363;SDS011;62797;49.740;10.154;2023-04-03T04:41:30;8.80;;;5.50;;
74363;SDS011;62797;49.740;10.154;2023-04-03T04:43:57;17.73;;;6.28;;
74363;SDS011;62797;49.740;10.154;2023-04-03T04:46:24;5.07;;;4.47;;
74363;SDS011;62797;49.740;10.154;2023-04-03T04:48:54;9.50;;;5.72;;
74363;SDS011;62797;49.740;10.154;2023-04-03T04:51:21;5.97;;;4.38;;
74363;SDS011;62797;49.740;10.154;2023-04-03T04:53:47;11.93;;;5.10;;
74363;SDS011;62797;49.740;10.154;2023-04-03T04:56:15;9.48;;;5.10;;
74363;SDS011;62797;49.740;10.154;2023-04-03T05:01:08;14.25;;;6.32;;
74363;SDS011;62797;49.740;10.154;2023-04-03T05:03:46;7.78;;;4.82;;
74363;SDS011;62797;49.740;10.154;2023-04-03T05:06:13;5.70;;;4.45;;
74363;SDS011;62797;49.740;10.154;2023-04-03T05:08:39;12.27;;;6.43;;
74363;SDS011;62797;49.740;10.154;2023-04-03T05:11:06;11.82;;;6.70;;
74363;SDS011;62797;49.740;10.154;2023-04-03T05:13:33;10.63;;;5.45;;
74363;SDS011;62797;49.740;10.154;2023-04-03T05:15:58;11.03;;;5.10;;
74363;SDS011;62797;49.740;10.154;2023-04-03T05:18:24;11.20;;;5.28;;
74363;SDS011;62797;49.740;10.154;2023-04-03T05:20:52;10.35;;;6.03;;
74363;SDS011;62797;49.740;10.154;2023-04-03T05:23:19;6.65;;;5.38;;
74363;SDS011;62797;49.740;10.154;2023-04-03T05:25:46;8.50;;;5.18;;
74363;SDS011;62797;49.740;10.154;2023-04-03T05:28:13;11.20;;;5.43;;
74363;SDS011;62797;49.740;10.154;2023-04-03T05:30:39;12.50;;;4.80;;
74363;SDS011;62797;49.740;10.154;2023-04-03T05:33:05;11.05;;;4.88;;
74363;SDS011;62797;49.740;10.154;2023-04-03T05:35:43;10.13;;;5.18;;
74363;SDS011;62797;49.740;10.154;2023-04-03T05:38:16;11.73;;;4.93;;
74363;SDS011;62797;49.740;10.154;2023-04-03T05:40:42;5.75;;;4.53;;
74363;SDS011;62797;49.740;10.154;2023-04-03T05:43:08;10.45;;;5.00;;
74363;SDS011;62797;49.740;10.154;2023-04-03T05:45:37;12.73;;;5.47;;
74363;SDS011;62797;49.740;10.154;2023-04-03T05:48:03;12.75;;;5.90;;
74363;SDS011;62797;49.740;10.154;2023-04-03T05:50:29;14.95;;;5.40;;
74363;SDS011;62797;49.740;10.154;2023-04-03T05:52:56;8.75;;;5.28;;
74363;SDS011;62797;49.740;10.154;2023-04-03T05:55:25;10.43;;;4.50;;
74363;SDS011;62797;49.740;10.154;2023-04-03T05:57:51;12.65;;;5.72;;
74363;SDS011;62797;49.740;10.154;2023-04-03T06:00:16;9.40;;;4.82;;
74363;SDS011;62797;49.740;10.154;2023-04-03T06:02:52;13.25;;;6.32;;
74363;SDS011;62797;49.740;10.154;2023-04-03T06:05:22;10.35;;;5.15;;
74363;SDS011;62797;49.740;10.154;2023-04-03T06:07:48;7.82;;;4.85;;
74363;SDS011;62797;49.740;10.154;2023-04-03T06:10:14;14.35;;;5.90;;
74363;SDS011;62797;49.740;10.154;2023-04-03T06:12:41;12.43;;;5.20;;
74363;SDS011;62797;49.740;10.154;2023-04-03T06:15:07;7.13;;;4.68;;
74363;SDS011;62797;49.740;10.154;2023-04-03T06:17:34;8.57;;;5.55;;
74363;SDS011;62797;49.740;10.154;2023-04-03T06:20:01;9.40;;;5.18;;
74363;SDS011;62797;49.740;10.154;2023-04-03T06:22:27;9.10;;;5.18;;
74363;SDS011;62797;49.740;10.154;2023-04-03T06:24:55;10.68;;;6.03;;
74363;SDS011;62797;49.740;10.154;2023-04-03T06:27:21;17.67;;;5.80;;
74363;SDS011;62797;49.740;10.154;2023-04-03T06:29:47;11.68;;;5.68;;
74363;SDS011;62797;49.740;10.154;2023-04-03T06:32:13;8.85;;;4.82;;
74363;SDS011;62797;49.740;10.154;2023-04-03T06:34:40;7.07;;;5.35;;
74363;SDS011;62797;49.740;10.154;2023-04-03T06:37:06;9.20;;;5.25;;
74363;SDS011;62797;49.740;10.154;2023-04-03T06:39:46;14.52;;;6.80;;
74363;SDS011;62797;49.740;10.154;2023-04-03T06:42:12;14.57;;;5.93;;
74363;SDS011;62797;49.740;10.154;2023-04-03T06:44:47;10.27;;;5.55;;
74363;SDS011;62797;49.740;10.154;2023-04-03T06:47:13;9.50;;;5.63;;
74363;SDS011;62797;49.740;10.154;2023-04-03T06:49:40;9.73;;;4.75;;
74363;SDS011;62797;49.740;10.154;2023-04-03T06:52:06;5.93;;;4.28;;
74363;SDS011;62797;49.740;10.154;2023-04-03T06:54:32;13.60;;;5.00;;
74363;SDS011;62797;49.740;10.154;2023-04-03T06:56:58;13.52;;;5.45;;
74363;SDS011;62797;49.740;10.154;2023-04-03T06:59:24;8.88;;;4.85;;
74363;SDS011;62797;49.740;10.154;2023-04-03T07:04:16;12.07;;;4.53;;
74363;SDS011;62797;49.740;10.154;2023-04-03T07:06:41;13.40;;;4.57;;
74363;SDS011;62797;49.740;10.154;2023-04-03T07:09:08;8.55;;;5.60;;
74363;SDS011;62797;49.740;10.154;2023-04-03T07:13:59;10.40;;;4.30;;
74363;SDS011;62797;49.740;10.154;2023-04-03T07:16:25;6.83;;;5.10;;
74363;SDS011;62797;49.740;10.154;2023-04-03T07:18:51;10.23;;;4.43;;
74363;SDS011;62797;49.740;10.154;2023-04-03T07:21:17;12.20;;;3.83;;
74363;SDS011;62797;49.740;10.154;2023-04-03T07:23:43;12.50;;;4.93;;
74363;SDS011;62797;49.740;10.154;2023-04-03T07:26:08;9.40;;;4.80;;
74363;SDS011;62797;49.740;10.154;2023-04-03T07:28:34;12.82;;;5.75;;
74363;SDS011;62797;49.740;10.154;2023-04-03T07:31:02;15.10;;;4.93;;
74363;SDS011;62797;49.740;10.154;2023-04-03T07:33:31;8.57;;;3.75;;
74363;SDS011;62797;49.740;10.154;2023-04-03T07:35:57;9.38;;;4.53;;
74363;SDS011;62797;49.740;10.154;2023-04-03T07:38:25;10.40;;;5.05;;
74363;SDS011;62797;49.740;10.154;2023-04-03T07:40:51;9.50;;;4.30;;
74363;SDS011;62797;49.740;10.154;2023-04-03T07:43:18;14.70;;;4.60;;
74363;SDS011;62797;49.740;10.154;2023-04-03T07:45:45;8.23;;;4.25;;
74363;SDS011;62797;49.740;10.154;2023-04-03T07:48:14;8.50;;;4.90;;
74363;SDS011;62797;49.740;10.154;2023-04-03T07:50:41;8.55;;;4.35;;
74363;SDS011;62797;49.740;10.154;2023-04-03T07:53:07;13.50;;;4.78;;
74363;SDS011;62797;49.740;10.154;2023-04-03T07:55:32;9.23;;;5.10;;
74363;SDS011;62797;49.740;10.154;2023-04-03T07:57:59;6.53;;;3.95;;
74363;SDS011;62797;49.740;10.154;2023-04-03T08:00:24;8.27;;;4.25;;
74363;SDS011;62797;49.740;10.154;2023-04-03T08:02:50;8.10;;;5.47;;
74363;SDS011;62797;49.740;10.154;2023-04-03T08:05:20;15.63;;;5.28;;
74363;SDS011;62797;49.740;10.154;2023-04-03T08:07:47;6.10;;;4.07;;
74363;SDS011;62797;49.740;10.154;2023-04-03T08:12:39;7.75;;;3.72;;
74363;SDS011;62797;49.740;10.154;2023-04-03T08:15:05;15.15;;;4.63;;
74363;SDS011;62797;49.740;10.154;2023-04-03T08:17:33;6.00;;;3.60;;
74363;SDS011;62797;49.740;10.154;2023-04-03T08:22:25;9.73;;;4.43;;
74363;SDS011;62797;49.740;10.154;2023-04-03T08:24:51;8.05;;;4.10;;
74363;SDS011;62797;49.740;10.154;2023-04-03T08:27:17;7.03;;;3.70;;
74363;SDS011;62797;49.740;10.154;2023-04-03T08:29:43;11.18;;;4.40;;
74363;SDS011;62797;49.740;10.154;2023-04-03T08:32:08;11.75;;;5.03;;
74363;SDS011;62797;49.740;10.154;2023-04-03T08:34:34;10.23;;;3.50;;
74363;SDS011;62797;49.740;10.154;2023-04-03T08:37:01;8.80;;;3.80;;
74363;SDS011;62797;49.740;10.154;2023-04-03T08:39:27;6.90;;;3.67;;
74363;SDS011;62797;49.740;10.154;2023-04-03T08:41:55;7.90;;;3.72;;
74363;SDS011;62797;49.740;10.154;2023-04-03T08:47:24;9.85;;;3.60;;
74363;SDS011;62797;49.740;10.154;2023-04-03T08:49:57;8.68;;;4.88;;
74363;SDS011;62797;49.740;10.154;2023-04-03T08:52:32;10.88;;;4.72;;
74363;SDS011;62797;49.740;10.154;2023-04-03T08:55:22;10.60;;;4.47;;
74363;SDS011;62797;49.740;10.154;2023-04-03T08:58:09;8.40;;;4.15;;
74363;SDS011;62797;49.740;10.154;2023-04-03T09:01:14;7.10;;;3.70;;
74363;SDS011;62797;49.740;10.154;2023-04-03T09:03:40;12.13;;;4.30;;
74363;SDS011;62797;49.740;10.154;2023-04-03T09:06:07;8.20;;;3.60;;
74363;SDS011;62797;49.740;10.154;2023-04-03T09:08:40;6.90;;;3.30;;
74363;SDS011;62797;49.740;10.154;2023-04-03T09:11:23;17.77;;;4.50;;
74363;SDS011;62797;49.740;10.154;2023-04-03T09:16:56;10.70;;;4.00;;
74363;SDS011;62797;49.740;10.154;2023-04-03T09:19:36;9.30;;;3.47;;
74363;SDS011;62797;49.740;10.154;2023-04-03T09:24:48;6.07;;;3.33;;
74363;SDS011;62797;49.740;10.154;2023-04-03T09:27:22;8.57;;;3.20;;
74363;SDS011;62797;49.740;10.154;2023-04-03T09:29:48;10.67;;;4.40;;
74363;SDS011;62797;49.740;10.154;2023-04-03T09:32:21;7.72;;;3.90;;
74363;SDS011;62797;49.740;10.154;2023-04-03T09:34:51;5.18;;;3.40;;
74363;SDS011;62797;49.740;10.154;2023-04-03T09:37:34;6.18;;;3.42;;
74363;SDS011;62797;49.740;10.154;2023-04-03T09:40:28;5.88;;;4.03;;
74363;SDS011;62797;49.740;10.154;2023-04-03T09:43:19;6.60;;;3.15;;
74363;SDS011;62797;49.740;10.154;2023-04-03T09:46:42;15.90;;;4.50;;
74363;SDS011;62797;49.740;10.154;2023-04-03T09:48:59;14.48;;;5.20;;
74363;SDS011;62797;49.740;10.154;2023-04-03T09:51:28;7.35;;;3.47;;
74363;SDS011;62797;49.740;10.154;2023-04-03T09:53:55;14.10;;;3.75;;
74363;SDS011;62797;49.740;10.154;2023-04-03T09:56:23;9.38;;;3.33;;
74363;SDS011;62797;49.740;10.154;2023-04-03T10:01:31;7.10;;;3.05;;
74363;SDS011;62797;49.740;10.154;2023-04-03T10:04:06;11.27;;;2.88;;
74363;SDS011;62797;49.740;10.154;2023-04-03T10:06:38;13.38;;;2.72;;
74363;SDS011;62797;49.740;10.154;2023-04-03T10:09:24;4.13;;;2.47;;
74363;SDS011;62797;49.740;10.154;2023-04-03T10:14:38;7.30;;;3.22;;
74363;SDS011;62797;49.740;10.154;2023-04-03T10:17:25;6.30;;;2.75;;
74363;SDS011;62797;49.740;10.154;2023-04-03T10:23:05;7.63;;;2.72;;
74363;SDS011;62797;49.740;10.154;2023-04-03T10:28:48;5.70;;;3.30;;
74363;SDS011;62797;49.740;10.154;2023-04-03T10:34:02;7.40;;;3.28;;
74363;SDS011;62797;49.740;10.154;2023-04-03T10:36:34;3.90;;;2.40;;
74363;SDS011;62797;49.740;10.154;2023-04-03T10:39:19;8.32;;;5.13;;
74363;SDS011;62797;49.740;10.154;2023-04-03T10:42:18;6.13;;;2.72;;
74363;SDS011;62797;49.740;10.154;2023-04-03T10:47:41;7.10;;;3.03;;
74363;SDS011;62797;49.740;10.154;2023-04-03T10:58:21;9.98;;;3.10;;
74363;SDS011;62797;49.740;10.154;2023-04-03T11:00:54;3.72;;;2.38;;
74363;SDS011;62797;49.740;10.154;2023-04-03T11:03:42;3.78;;;2.28;;
74363;SDS011;62797;49.740;10.154;2023-04-03T11:06:11;5.32;;;2.13;;
74363;SDS011;62797;49.740;10.154;2023-04-03T11:11:37;6.30;;;2.13;;
74363;SDS011;62797;49.740;10.154;2023-04-03T11:14:09;5.82;;;2.47;;
74363;SDS011;62797;49.740;10.154;2023-04-03T11:16:43;5.90;;;2.63;;
74363;SDS011;62797;49.740;10.154;2023-04-03T11:19:15;3.17;;;1.90;;
74363;SDS011;62797;49.740;10.154;2023-04-03T11:22:09;7.07;;;2.28;;
74363;SDS011;62797;49.740;10.154;2023-04-03T11:24:51;7.90;;;2.20;;
74363;SDS011;62797;49.740;10.154;2023-04-03T11:27:23;5.40;;;2.38;;
74363;SDS011;62797;49.740;10.154;2023-04-03T11:29:50;5.80;;;2.13;;
74363;SDS011;62797;49.740;10.154;2023-04-03T11:32:38;5.80;;;2.30;;
74363;SDS011;62797;49.740;10.154;2023-04-03T11:35:08;33.70;;;3.03;;
74363;SDS011;62797;49.740;10.154;2023-04-03T11:37:38;10.90;;;4.25;;
74363;SDS011;62797;49.740;10.154;2023-04-03T11:42:46;6.32;;;1.95;;
74363;SDS011;62797;49.740;10.154;2023-04-03T11:45:17;4.05;;;2.08;;
74363;SDS011;62797;49.740;10.154;2023-04-03T11:58:14;3.90;;;2.10;;
74363;SDS011;62797;49.740;10.154;2023-04-03T12:16:07;4.00;;;2.10;;
74363;SDS011;62797;49.740;10.154;2023-04-03T12:46:33;1.63;;;1.42;;
74363;SDS011;62797;49.740;10.154;2023-04-03T12:48:33;3.67;;;1.80;;
74363;SDS011;62797;49.740;10.154;2023-04-03T12:51:19;3.38;;;1.70;;
74363;SDS011;62797;49.740;10.154;2023-04-03T12:53:45;6.25;;;1.73;;
74363;SDS011;62797;49.740;10.154;2023-04-03T12:56:24;5.22;;;1.50;;
74363;SDS011;62797;49.740;10.154;2023-04-03T12:58:55;2.95;;;1.40;;
74363;SDS011;62797;49.740;10.154;2023-04-03T13:01:41;6.75;;;1.75;;
74363;SDS011;62797;49.740;10.154;2023-04-03T13:04:07;3.38;;;1.67;;
74363;SDS011;62797;49.740;10.154;2023-04-03T13:06:41;5.50;;;2.20;;
74363;SDS011;62797;49.740;10.154;2023-04-03T13:09:31;4.72;;;1.40;;
74363;SDS011;62797;49.740;10.154;2023-04-03T13:12:12;2.33;;;1.60;;
74363;SDS011;62797;49.740;10.154;2023-04-03T13:14:39;2.90;;;1.63;;
74363;SDS011;62797;49.740;10.154;2023-04-03T13:19:37;5.28;;;1.77;;
74363;SDS011;62797;49.740;10.154;2023-04-03T13:22:24;7.38;;;1.73;;
74363;SDS011;62797;49.740;10.154;2023-04-03T13:24:55;3.47;;;1.75;;
74363;SDS011;62797;49.740;10.154;2023-04-03T13:27:24;1.55;;;1.17;;
74363;SDS011;62797;49.740;10.154;2023-04-03T13:29:51;6.22;;;1.35;;
74363;SDS011;62797;49.740;10.154;2023-04-03T13:32:22;1.77;;;1.00;;
74363;SDS011;62797;49.740;10.154;2023-04-03T13:34:49;7.63;;;2.83;;
74363;SDS011;62797;49.740;10.154;2023-04-03T13:37:33;3.85;;;1.13;;
74363;SDS011;62797;49.740;10.154;2023-04-03T13:40:09;3.25;;;1.85;;
74363;SDS011;62797;49.740;10.154;2023-04-03T13:42:40;2.53;;;1.10;;
74363;SDS011;62797;49.740;10.154;2023-04-03T13:47:49;1.98;;;1.50;;
74363;SDS011;62797;49.740;10.154;2023-04-03T13:57:51;7.40;;;1.30;;
74363;SDS011;62797;49.740;10.154;2023-04-03T14:01:06;4.22;;;1.55;;
74363;SDS011;62797;49.740;10.154;2023-04-03T14:03:24;3.80;;;1.75;;
74363;SDS011;62797;49.740;10.154;2023-04-03T14:05:55;6.20;;;2.17;;
74363;SDS011;62797;49.740;10.154;2023-04-03T14:08:23;4.37;;;1.60;;
74363;SDS011;62797;49.740;10.154;2023-04-03T14:10:49;3.35;;;1.23;;
74363;SDS011;62797;49.740;10.154;2023-04-03T14:13:16;2.08;;;1.13;;
74363;SDS011;62797;49.740;10.154;2023-04-03T14:15:44;5.38;;;1.92;;
74363;SDS011;62797;49.740;10.154;2023-04-03T14:18:14;2.60;;;2.10;;
74363;SDS011;62797;49.740;10.154;2023-04-03T14:20:42;6.55;;;1.60;;
74363;SDS011;62797;49.740;10.154;2023-04-03T14:23:08;3.15;;;1.38;;
74363;SDS011;62797;49.740;10.154;2023-04-03T14:25:34;3.03;;;1.70;;
74363;SDS011;62797;49.740;10.154;2023-04-03T14:28:00;2.38;;;1.40;;
74363;SDS011;62797;49.740;10.154;2023-04-03T14:30:30;2.50;;;1.35;;
74363;SDS011;62797;49.740;10.154;2023-04-03T14:32:58;8.63;;;1.38;;
74363;SDS011;62797;49.740;10.154;2023-04-03T14:35:25;8.23;;;2.08;;
74363;SDS011;62797;49.740;10.154;2023-04-03T14:37:51;2.50;;;1.38;;
74363;SDS011;62797;49.740;10.154;2023-04-03T14:40:21;3.83;;;1.27;;
74363;SDS011;62797;49.740;10.154;2023-04-03T14:42:49;3.70;;;1.58;;
74363;SDS011;62797;49.740;10.154;2023-04-03T14:45:15;3.47;;;1.50;;
74363;SDS011;62797;49.740;10.154;2023-04-03T14:47:45;3.50;;;1.38;;
74363;SDS011;62797;49.740;10.154;2023-04-03T14:50:24;2.55;;;1.58;;
74363;SDS011;62797;49.740;10.154;2023-04-03T14:52:53;3.90;;;1.42;;
74363;SDS011;62797;49.740;10.154;2023-04-03T14:55:21;3.55;;;1.30;;
74363;SDS011;62797;49.740;10.154;2023-04-03T14:57:48;4.80;;;1.92;;
74363;SDS011;62797;49.740;10.154;2023-04-03T15:00:17;2.85;;;1.08;;
74363;SDS011;62797;49.740;10.154;2023-04-03T15:02:45;1.92;;;1.13;;
74363;SDS011;62797;49.740;10.154;2023-04-03T15:05:12;5.78;;;1.23;;
74363;SDS011;62797;49.740;10.154;2023-04-03T15:07:57;7.00;;;1.70;;
74363;SDS011;62797;49.740;10.154;2023-04-03T15:10:29;5.70;;;1.23;;
74363;SDS011;62797;49.740;10.154;2023-04-03T15:12:55;4.15;;;1.38;;
74363;SDS011;62797;49.740;10.154;2023-04-03T15:15:23;4.57;;;1.23;;
74363;SDS011;62797;49.740;10.154;2023-04-03T15:17:53;4.95;;;1.30;;
74363;SDS011;62797;49.740;10.154;2023-04-03T15:20:21;2.55;;;1.13;;
74363;SDS011;62797;49.740;10.154;2023-04-03T15:22:49;10.77;;;1.65;;
74363;SDS011;62797;49.740;10.154;2023-04-03T15:25:15;3.42;;;1.15;;
74363;SDS011;62797;49.740;10.154;2023-04-03T15:27:42;3.13;;;1.40;;
74363;SDS011;62797;49.740;10.154;2023-04-03T15:30:10;3.33;;;1.75;;
74363;SDS011;62797;49.740;10.154;2023-04-03T15:32:38;4.88;;;1.08;;
74363;SDS011;62797;49.740;10.154;2023-04-03T15:35:04;3.60;;;0.97;;
74363;SDS011;62797;49.740;10.154;2023-04-03T15:37:30;2.35;;;1.02;;
74363;SDS011;62797;49.740;10.154;2023-04-03T15:39:56;3.42;;;1.50;;
74363;SDS011;62797;49.740;10.154;2023-04-03T15:42:21;3.47;;;1.33;;
74363;SDS011;62797;49.740;10.154;2023-04-03T15:44:47;3.67;;;1.10;;
74363;SDS011;62797;49.740;10.154;2023-04-03T15:47:13;2.35;;;1.15;;
74363;SDS011;62797;49.740;10.154;2023-04-03T15:49:38;3.65;;;1.30;;
74363;SDS011;62797;49.740;10.154;2023-04-03T15:52:04;2.37;;;1.40;;
74363;SDS011;62797;49.740;10.154;2023-04-03T15:54:30;1.20;;;0.98;;
74363;SDS011;62797;49.740;10.154;2023-04-03T15:56:56;4.70;;;1.37;;
74363;SDS011;62797;49.740;10.154;2023-04-03T15:59:22;4.13;;;1.20;;
74363;SDS011;62797;49.740;10.154;2023-04-03T16:01:48;7.55;;;1.90;;
74363;SDS011;62797;49.740;10.154;2023-04-03T16:04:15;5.03;;;1.58;;
74363;SDS011;62797;49.740;10.154;2023-04-03T16:06:42;5.53;;;1.80;;
74363;SDS011;62797;49.740;10.154;2023-04-03T16:09:08;5.72;;;1.20;;
74363;SDS011;62797;49.740;10.154;2023-04-03T16:11:34;3.45;;;1.10;;
74363;SDS011;62797;49.740;10.154;2023-04-03T16:14:02;3.33;;;1.33;;
74363;SDS011;62797;49.740;10.154;2023-04-03T16:16:28;4.97;;;1.38;;
74363;SDS011;62797;49.740;10.154;2023-04-03T16:18:55;3.83;;;1.20;;
74363;SDS011;62797;49.740;10.154;2023-04-03T16:21:21;2.28;;;0.80;;
74363;SDS011;62797;49.740;10.154;2023-04-03T16:26:13;2.17;;;1.08;;
74363;SDS011;62797;49.740;10.154;2023-04-03T16:28:39;3.70;;;1.85;;
74363;SDS011;62797;49.740;10.154;2023-04-03T16:31:05;3.03;;;1.52;;
74363;SDS011;62797;49.740;10.154;2023-04-03T16:33:32;9.05;;;2.10;;
74363;SDS011;62797;49.740;10.154;2023-04-03T16:35:57;10.35;;;1.20;;
74363;SDS011;62797;49.740;10.154;2023-04-03T16:38:23;3.60;;;1.20;;
74363;SDS011;62797;49.740;10.154;2023-04-03T16:40:51;6.82;;;1.38;;
74363;SDS011;62797;49.740;10.154;2023-04-03T16:43:21;2.55;;;1.20;;
74363;SDS011;62797;49.740;10.154;2023-04-03T16:45:47;5.77;;;1.33;;
74363;SDS011;62797;49.740;10.154;2023-04-03T16:48:13;2.38;;;1.58;;
74363;SDS011;62797;49.740;10.154;2023-04-03T16:50:39;1.90;;;1.10;;
74363;SDS011;62797;49.740;10.154;2023-04-03T16:53:04;5.63;;;1.70;;
74363;SDS011;62797;49.740;10.154;2023-04-03T16:55:33;6.10;;;1.23;;
74363;SDS011;62797;49.740;10.154;2023-04-03T16:57:58;2.03;;;1.23;;
74363;SDS011;62797;49.740;10.154;2023-04-03T17:00:24;6.50;;;1.17;;
74363;SDS011;62797;49.740;10.154;2023-04-03T17:02:50;5.88;;;1.38;;